createdAt,value
2022-08-18T00:01:00.840Z,13.30
2022-08-18T00:02:09.238Z,11.30
2022-08-18T00:03:27.250Z,12.10
2022-08-18T00:04:34.035Z,12.40
2022-08-18T00:05:21.361Z,14.10
2022-08-18T00:06:28.316Z,13.10
2022-08-18T00:07:32.154Z,13.50
2022-08-18T00:08:38.429Z,15.20
2022-08-18T00:09:38.841Z,11.70
2022-08-18T00:10:41.859Z,11.60
2022-08-18T00:11:45.649Z,10.40
2022-08-18T00:12:48.208Z,13.90
2022-08-18T00:13:50.649Z,12.00
2022-08-18T00:14:53.500Z,10.80
2022-08-18T00:15:55.746Z,13.91
2022-08-18T00:16:59.154Z,12.40
2022-08-18T00:18:01.919Z,11.60
2022-08-18T00:19:09.236Z,12.18
2022-08-18T00:21:23.866Z,12.40
2022-08-18T00:22:27.053Z,11.50
2022-08-18T00:23:31.196Z,12.40
2022-08-18T00:24:33.736Z,10.70
2022-08-18T00:25:37.112Z,12.10
2022-08-18T00:26:53.090Z,13.50
2022-08-18T00:27:55.511Z,11.70
2022-08-18T00:28:58.738Z,13.20
2022-08-18T00:30:01.830Z,11.60
2022-08-18T00:31:05.100Z,7.70
2022-08-18T00:32:15.442Z,10.70
2022-08-18T00:33:18.139Z,9.20
2022-08-18T00:34:20.542Z,12.20
2022-08-18T00:35:28.931Z,12.70
2022-08-18T00:36:32.102Z,9.50
2022-08-18T00:37:36.128Z,12.30
2022-08-18T00:38:38.544Z,12.10
2022-08-18T00:39:47.395Z,11.30
2022-08-18T00:40:47.751Z,10.30
2022-08-18T00:41:52.152Z,12.90
2022-08-18T00:42:56.633Z,12.70
2022-08-18T00:43:59.254Z,9.60
2022-08-18T00:45:03.915Z,11.50
2022-08-18T00:47:41.360Z,10.90
2022-08-18T00:48:25.074Z,11.70
2022-08-18T00:49:27.797Z,11.10
2022-08-18T00:50:35.499Z,12.80
2022-08-18T00:53:02.411Z,10.30
2022-08-18T00:55:31.951Z,11.70
2022-08-18T00:56:40.289Z,11.36
2022-08-18T00:57:42.607Z,10.20
2022-08-18T01:00:06.575Z,12.70
2022-08-18T01:01:08.881Z,11.20
2022-08-18T01:02:19.752Z,11.50
2022-08-18T01:03:24.754Z,12.20
2022-08-18T01:04:39.732Z,13.80
2022-08-18T01:07:19.662Z,8.10
2022-08-18T01:08:28.767Z,11.80
2022-08-18T01:09:27.680Z,10.90
2022-08-18T01:10:31.614Z,12.20
2022-08-18T01:11:36.400Z,11.30
2022-08-18T01:12:44.939Z,7.20
2022-08-18T01:13:44.443Z,11.80
2022-08-18T01:14:46.763Z,10.00
2022-08-18T01:15:49.160Z,11.50
2022-08-18T01:16:56.770Z,10.50
2022-08-18T01:17:59.065Z,12.10
2022-08-18T01:19:01.885Z,14.00
2022-08-18T01:20:05.286Z,11.70
2022-08-18T01:21:17.621Z,10.40
2022-08-18T01:22:40.565Z,14.80
2022-08-18T01:23:43.852Z,12.60
2022-08-18T01:24:46.270Z,10.20
2022-08-18T01:25:49.342Z,12.90
2022-08-18T01:26:51.891Z,12.30
2022-08-18T01:27:54.181Z,11.90
2022-08-18T01:29:01.317Z,11.40
2022-08-18T01:30:06.555Z,12.90
2022-08-18T01:31:09.106Z,12.80
2022-08-18T01:32:14.267Z,11.40
2022-08-18T01:33:17.342Z,12.30
2022-08-18T01:34:22.009Z,10.10
2022-08-18T01:35:25.648Z,11.40
2022-08-18T01:36:28.980Z,11.90
2022-08-18T01:37:31.446Z,11.30
2022-08-18T01:38:33.716Z,10.10
2022-08-18T01:41:17.335Z,12.10
2022-08-18T01:41:23.249Z,9.30
2022-08-18T01:41:45.960Z,10.40
2022-08-18T01:42:50.024Z,11.30
2022-08-18T01:43:52.469Z,12.60
2022-08-18T01:44:54.797Z,12.00
2022-08-18T01:45:57.173Z,10.70
2022-08-18T01:46:59.552Z,10.60
2022-08-18T01:48:02.712Z,12.20
2022-08-18T01:49:05.631Z,11.50
2022-08-18T01:50:11.392Z,11.90
2022-08-18T01:51:14.320Z,10.20
2022-08-18T01:52:18.340Z,11.00
2022-08-18T01:53:20.706Z,11.50
2022-08-18T01:54:22.969Z,11.30
2022-08-18T01:55:25.943Z,12.90
2022-08-18T01:56:31.208Z,10.20
2022-08-18T01:57:36.094Z,11.50
2022-08-18T01:58:45.223Z,12.20
2022-08-18T01:59:47.683Z,10.10
2022-08-18T02:00:50.833Z,12.60
2022-08-18T02:01:53.659Z,11.09
2022-08-18T02:03:01.957Z,11.80
2022-08-18T02:04:31.071Z,12.00
2022-08-18T02:05:11.576Z,10.90
2022-08-18T02:06:15.441Z,11.20
2022-08-18T02:07:18.860Z,11.60
2022-08-18T02:08:21.112Z,11.80
2022-08-18T02:09:24.474Z,11.40
2022-08-18T02:10:28.950Z,11.60
2022-08-18T02:11:31.994Z,12.80
2022-08-18T02:12:34.441Z,10.40
2022-08-18T02:13:37.846Z,12.40
2022-08-18T02:14:41.736Z,11.80
2022-08-18T02:15:45.741Z,12.10
2022-08-18T02:16:48.192Z,10.60
2022-08-18T02:17:51.468Z,11.50
2022-08-18T02:18:54.696Z,10.20
2022-08-18T02:19:57.547Z,11.40
2022-08-18T02:21:10.452Z,12.20
2022-08-18T02:22:16.454Z,10.60
2022-08-18T02:23:19.472Z,11.40
2022-08-18T02:24:22.134Z,12.10
2022-08-18T02:25:24.914Z,9.90
2022-08-18T02:26:28.001Z,13.90
2022-08-18T02:27:30.375Z,10.40
2022-08-18T02:28:32.721Z,8.20
2022-08-18T02:29:35.330Z,9.30
2022-08-18T02:30:38.244Z,12.09
2022-08-18T02:31:40.934Z,11.80
2022-08-18T02:32:43.913Z,13.45
2022-08-18T02:33:51.960Z,11.20
2022-08-18T02:34:50.585Z,8.90
2022-08-18T02:35:55.700Z,9.00
2022-08-18T02:36:59.630Z,11.50
2022-08-18T02:38:03.894Z,9.90
2022-08-18T02:39:07.297Z,11.70
2022-08-18T02:40:11.168Z,10.60
2022-08-18T02:41:17.240Z,11.00
2022-08-18T02:42:19.540Z,10.70
2022-08-18T02:43:22.107Z,9.30
2022-08-18T02:44:24.581Z,10.80
2022-08-18T02:45:26.780Z,10.00
2022-08-18T02:46:31.289Z,10.00
2022-08-18T02:47:34.078Z,11.60
2022-08-18T02:48:37.259Z,9.50
2022-08-18T02:49:39.835Z,12.10
2022-08-18T02:50:43.104Z,11.80
2022-08-18T02:51:46.709Z,10.70
2022-08-18T02:52:49.269Z,12.60
2022-08-18T02:53:51.654Z,8.90
2022-08-18T02:54:55.869Z,12.60
2022-08-18T02:57:19.582Z,12.20
2022-08-18T02:58:22.184Z,11.70
2022-08-18T02:59:26.175Z,7.80
2022-08-18T03:00:30.196Z,11.10
2022-08-18T03:01:35.684Z,11.00
2022-08-18T03:02:38.889Z,11.00
2022-08-18T03:03:41.322Z,12.30
2022-08-18T03:04:44.081Z,9.82
2022-08-18T03:05:46.358Z,11.10
2022-08-18T03:06:49.572Z,10.40
2022-08-18T03:07:52.767Z,12.80
2022-08-18T03:08:55.376Z,11.60
2022-08-18T03:09:59.155Z,9.60
2022-08-18T03:11:01.981Z,11.50
2022-08-18T03:12:05.266Z,7.50
2022-08-18T03:13:07.584Z,9.60
2022-08-18T03:14:11.942Z,12.50
2022-08-18T03:15:14.522Z,10.60
2022-08-18T03:16:17.850Z,12.30
2022-08-18T03:17:21.137Z,11.80
2022-08-18T03:18:23.635Z,11.50
2022-08-18T03:19:27.014Z,9.60
2022-08-18T03:20:31.558Z,10.30
2022-08-18T03:21:35.023Z,10.70
2022-08-18T03:22:38.005Z,10.90
2022-08-18T03:23:42.734Z,9.70
2022-08-18T03:24:45.207Z,11.00
2022-08-18T03:25:48.666Z,13.50
2022-08-18T03:26:52.251Z,12.20
2022-08-18T03:27:54.732Z,10.45
2022-08-18T03:28:57.474Z,8.20
2022-08-18T03:30:00.583Z,9.73
2022-08-18T03:31:03.224Z,10.40
2022-08-18T03:32:06.229Z,9.70
2022-08-18T03:33:09.916Z,11.90
2022-08-18T03:34:12.305Z,5.10
2022-08-18T03:35:18.157Z,11.10
2022-08-18T03:36:23.458Z,12.00
2022-08-18T03:37:26.428Z,12.00
2022-08-18T03:38:28.697Z,9.30
2022-08-18T03:39:31.103Z,10.60
2022-08-18T03:40:33.619Z,11.90
2022-08-18T03:41:57.402Z,12.60
2022-08-18T03:42:43.870Z,11.60
2022-08-18T03:43:51.079Z,13.60
2022-08-18T03:44:50.950Z,13.50
2022-08-18T03:45:54.189Z,10.50
2022-08-18T03:46:56.840Z,12.00
2022-08-18T03:47:59.656Z,11.20
2022-08-18T03:49:02.150Z,13.60
2022-08-18T03:50:06.347Z,11.30
2022-08-18T03:51:11.453Z,12.30
2022-08-18T03:52:14.074Z,11.70
2022-08-18T03:53:16.221Z,8.10
2022-08-18T03:54:18.872Z,12.10
2022-08-18T03:55:21.230Z,12.00
2022-08-18T03:56:24.926Z,9.50
2022-08-18T03:57:27.656Z,10.60
2022-08-18T03:58:30.016Z,13.00
2022-08-18T03:59:33.307Z,14.40
2022-08-18T04:00:37.547Z,12.80
2022-08-18T04:01:41.078Z,11.60
2022-08-18T04:02:43.807Z,11.50
2022-08-18T04:03:51.467Z,11.80
2022-08-18T04:04:54.879Z,12.40
2022-08-18T04:05:57.962Z,10.40
2022-08-18T04:07:05.122Z,12.50
2022-08-18T04:08:07.531Z,14.70
2022-08-18T04:09:12.587Z,14.00
2022-08-18T04:10:19.704Z,11.70
2022-08-18T04:11:20.260Z,11.30
2022-08-18T04:12:22.870Z,13.55
2022-08-18T04:13:25.464Z,12.30
2022-08-18T04:14:29.069Z,14.80
2022-08-18T04:15:32.119Z,12.50
2022-08-18T04:16:36.457Z,14.70
2022-08-18T04:18:03.435Z,12.60
2022-08-18T04:18:42.777Z,12.30
2022-08-18T04:19:46.113Z,8.90
2022-08-18T04:20:59.105Z,14.30
2022-08-18T04:21:55.832Z,11.00
2022-08-18T04:22:58.904Z,14.50
2022-08-18T04:24:01.361Z,12.60
2022-08-18T04:25:04.553Z,14.80
2022-08-18T04:26:08.233Z,13.60
2022-08-18T04:27:10.676Z,12.30
2022-08-18T04:28:14.288Z,14.40
2022-08-18T04:29:17.980Z,13.10
2022-08-18T04:30:22.283Z,12.10
2022-08-18T04:31:24.847Z,13.64
2022-08-18T04:32:30.081Z,12.20
2022-08-18T04:33:32.984Z,12.30
2022-08-18T04:34:35.118Z,14.40
2022-08-18T04:35:38.094Z,12.90
2022-08-18T04:36:40.906Z,11.60
2022-08-18T04:37:43.170Z,13.50
2022-08-18T04:38:45.692Z,11.50
2022-08-18T04:39:48.228Z,13.20
2022-08-18T04:40:51.424Z,10.90
2022-08-18T04:41:56.149Z,11.60
2022-08-18T04:42:59.986Z,15.50
2022-08-18T04:44:04.686Z,15.73
2022-08-18T04:45:08.286Z,11.00
2022-08-18T04:46:11.645Z,11.70
2022-08-18T04:47:14.117Z,12.40
2022-08-18T04:48:16.477Z,12.70
2022-08-18T04:49:22.202Z,11.40
2022-08-18T04:50:26.338Z,12.70
2022-08-18T04:52:26.720Z,11.70
2022-08-18T04:52:40.420Z,12.60
2022-08-18T04:53:37.712Z,11.30
2022-08-18T04:54:39.982Z,14.10
2022-08-18T04:57:10.974Z,14.50
2022-08-18T04:58:14.285Z,11.40
2022-08-18T04:59:16.638Z,11.50
2022-08-18T05:00:20.123Z,12.90
2022-08-18T05:01:25.189Z,10.50
2022-08-18T05:02:28.646Z,13.70
2022-08-18T05:03:31.039Z,13.00
2022-08-18T05:04:37.363Z,12.00
2022-08-18T05:05:40.331Z,13.90
2022-08-18T05:06:44.044Z,13.20
2022-08-18T05:07:47.356Z,13.20
2022-08-18T05:08:50.191Z,11.80
2022-08-18T05:09:52.992Z,13.00
2022-08-18T05:11:01.671Z,16.20
2022-08-18T05:12:03.062Z,13.40
2022-08-18T05:13:05.378Z,14.70
2022-08-18T05:14:08.965Z,17.20
2022-08-18T05:15:12.455Z,14.60
2022-08-18T05:16:25.384Z,13.50
2022-08-18T05:17:20.252Z,17.00
2022-08-18T05:18:26.621Z,16.30
2022-08-18T05:19:32.032Z,18.30
2022-08-18T05:20:36.853Z,19.20
2022-08-18T05:21:39.463Z,24.60
2022-08-18T05:22:42.710Z,26.70
2022-08-18T05:23:47.532Z,38.70
2022-08-18T05:24:49.975Z,40.50
2022-08-18T05:25:59.687Z,47.20
2022-08-18T05:27:02.500Z,45.90
2022-08-18T05:28:05.275Z,39.27
2022-08-18T05:29:18.521Z,32.60
2022-08-18T05:30:12.866Z,33.40
2022-08-18T05:31:16.974Z,29.00
2022-08-18T05:32:41.155Z,28.20
2022-08-18T05:33:24.862Z,37.00
2022-08-18T05:34:27.491Z,31.00
2022-08-18T05:35:40.619Z,26.10
2022-08-18T05:36:49.817Z,25.10
2022-08-18T05:38:01.759Z,23.20
2022-08-18T05:39:23.883Z,24.60
2022-08-18T05:40:27.367Z,20.80
2022-08-18T05:42:47.603Z,21.00
2022-08-18T05:44:02.932Z,20.90
2022-08-18T05:46:47.571Z,16.40
2022-08-18T05:47:50.552Z,18.70
2022-08-18T05:48:53.121Z,18.20
2022-08-18T05:49:57.072Z,19.40
2022-08-18T05:51:01.025Z,15.20
2022-08-18T05:53:17.809Z,16.00
2022-08-18T05:54:22.232Z,13.90
2022-08-18T05:55:28.490Z,15.70
2022-08-18T05:56:33.449Z,16.60
2022-08-18T05:58:53.785Z,16.10
2022-08-18T05:59:56.000Z,14.20
2022-08-18T06:05:13.250Z,15.80
2022-08-18T06:06:19.195Z,15.40
2022-08-18T06:08:56.768Z,12.50
2022-08-18T06:09:59.921Z,13.90
2022-08-18T06:11:03.203Z,15.20
2022-08-18T06:13:59.398Z,14.60
2022-08-18T06:16:29.249Z,11.70
2022-08-18T06:17:35.817Z,12.70
2022-08-18T06:20:22.489Z,14.00
2022-08-18T06:21:39.380Z,12.80
2022-08-18T06:24:12.610Z,14.10
2022-08-18T06:25:19.788Z,13.50
2022-08-18T06:26:46.397Z,11.90
2022-08-18T06:29:48.004Z,14.90
2022-08-18T06:31:03.852Z,14.30
2022-08-18T06:32:10.108Z,14.40
2022-08-18T06:33:28.955Z,12.60
2022-08-18T06:34:37.724Z,13.40
2022-08-18T06:35:52.045Z,12.10
2022-08-18T06:37:00.785Z,11.50
2022-08-18T06:38:18.519Z,13.80
2022-08-18T06:39:30.828Z,14.40
2022-08-18T06:40:33.407Z,13.50
2022-08-18T06:41:47.504Z,13.90
2022-08-18T06:42:52.164Z,14.20
2022-08-18T06:44:03.744Z,14.20
2022-08-18T06:45:11.617Z,17.20
2022-08-18T06:46:18.647Z,11.00
2022-08-18T06:47:55.061Z,14.60
2022-08-18T06:49:01.237Z,13.10
2022-08-18T06:51:26.554Z,11.90
2022-08-18T06:52:31.811Z,14.00
2022-08-18T06:53:57.093Z,12.20
2022-08-18T06:56:27.067Z,14.00
2022-08-18T07:57:35.452Z,13.80
2022-08-18T07:58:49.143Z,12.60
2022-08-18T08:01:38.909Z,14.10
2022-08-18T08:02:57.428Z,14.40
2022-08-18T08:04:25.435Z,13.20
2022-08-18T08:05:51.107Z,13.30
2022-08-18T08:08:19.633Z,11.40
2022-08-18T08:11:16.394Z,12.80
2022-08-18T08:12:25.287Z,12.90
2022-08-18T08:13:57.596Z,14.30
2022-08-18T08:14:58.322Z,10.80
2022-08-18T08:16:19.878Z,10.70
2022-08-18T08:17:32.235Z,12.90
2022-08-18T08:18:47.498Z,11.60
2022-08-18T08:21:32.354Z,12.90
2022-08-18T08:22:58.091Z,11.50
2022-08-18T08:24:19.304Z,11.10
2022-08-18T08:25:45.635Z,13.00
2022-08-18T08:26:54.415Z,9.30
2022-08-18T08:28:26.476Z,11.30
2022-08-18T08:29:39.273Z,12.00
2022-08-18T08:32:12.288Z,11.70
2022-08-18T08:33:21.838Z,11.60
2022-08-18T08:34:51.302Z,11.10
2022-08-18T08:36:08.043Z,13.20
2022-08-18T08:37:13.079Z,8.10
2022-08-18T08:38:40.284Z,11.00
2022-08-18T08:39:42.822Z,10.40
2022-08-18T08:40:52.621Z,13.30
2022-08-18T08:43:19.143Z,9.30
2022-08-18T08:44:26.794Z,10.30
2022-08-18T08:45:34.251Z,11.20
2022-08-18T08:48:09.034Z,8.20
2022-08-18T08:49:32.354Z,11.70
2022-08-18T08:51:57.418Z,10.30
2022-08-18T08:53:12.519Z,8.90
2022-08-18T08:54:26.425Z,10.40
2022-08-18T08:55:37.242Z,10.30
2022-08-18T08:56:46.373Z,11.50
2022-08-18T08:58:08.755Z,11.00
2022-08-18T08:59:14.235Z,9.80
2022-08-18T09:00:18.690Z,9.90
2022-08-18T09:01:33.760Z,9.80
2022-08-18T09:02:57.128Z,9.20
2022-08-18T09:03:56.819Z,8.20
2022-08-18T09:05:14.890Z,11.10
2022-08-18T09:06:41.149Z,8.40
2022-08-18T09:08:08.825Z,9.80
2022-08-18T09:10:47.426Z,10.00
2022-08-18T09:12:17.559Z,8.50
2022-08-18T09:13:44.936Z,9.40
2022-08-18T09:15:11.431Z,10.30
2022-08-18T09:16:21.750Z,9.50
2022-08-18T09:17:57.637Z,9.80
2022-08-18T09:21:17.831Z,8.50
2022-08-18T09:24:20.296Z,10.10
2022-08-18T09:27:25.086Z,11.20
2022-08-18T09:28:31.172Z,8.00
2022-08-18T09:31:09.253Z,10.10
2022-08-18T09:32:22.626Z,9.60
2022-08-18T09:33:34.496Z,10.80
2022-08-18T09:35:00.176Z,9.00
2022-08-18T09:36:10.612Z,9.20
2022-08-18T09:38:39.977Z,10.30
2022-08-18T09:41:02.592Z,11.00
2022-08-18T09:42:01.576Z,9.20
2022-08-18T09:43:15.492Z,9.40
2022-08-18T09:44:46.306Z,9.90
2022-08-18T09:47:08.457Z,10.00
2022-08-18T09:50:59.946Z,9.10
2022-08-18T09:53:52.759Z,10.50
2022-08-18T09:55:04.580Z,11.20
2022-08-18T09:56:08.488Z,5.70
2022-08-18T09:57:19.553Z,10.90
2022-08-18T09:58:29.343Z,8.60
2022-08-18T10:01:22.804Z,10.40
2022-08-18T10:04:34.547Z,8.90
2022-08-18T10:05:37.185Z,9.80
2022-08-18T10:06:43.169Z,9.80
2022-08-18T10:07:58.305Z,8.00
2022-08-18T10:09:26.927Z,9.40
2022-08-18T10:12:22.170Z,8.90
2022-08-18T10:13:38.629Z,9.60
2022-08-18T10:16:18.962Z,10.70
2022-08-18T10:19:00.519Z,11.00
2022-08-18T10:22:58.004Z,11.90
2022-08-18T10:25:30.393Z,7.20
2022-08-18T10:26:38.407Z,10.70
2022-08-18T10:27:47.886Z,9.80
2022-08-18T10:28:54.432Z,10.80
2022-08-18T10:29:57.853Z,10.20
2022-08-18T10:31:06.282Z,10.40
2022-08-18T10:32:15.414Z,11.20
2022-08-18T10:35:56.527Z,9.90
2022-08-18T10:37:00.211Z,9.40
2022-08-18T10:38:24.454Z,10.70
2022-08-18T10:39:42.029Z,9.80
2022-08-18T10:43:57.459Z,9.40
2022-08-18T10:44:57.794Z,8.20
2022-08-18T10:46:25.060Z,10.80
2022-08-18T10:47:12.014Z,7.10
2022-08-18T10:51:13.413Z,8.70
2022-08-18T10:55:48.197Z,10.10
2022-08-18T10:56:48.979Z,9.80
2022-08-18T10:58:28.195Z,7.80
2022-08-18T10:59:49.071Z,8.60
2022-08-18T11:00:44.820Z,11.20
2022-08-18T11:02:16.578Z,9.20
2022-08-18T11:04:47.156Z,10.10
2022-08-18T11:07:20.697Z,10.20
2022-08-18T11:09:51.033Z,9.70
2022-08-18T11:12:13.064Z,7.90
2022-08-18T11:13:52.062Z,10.90
2022-08-18T11:19:42.077Z,10.50
2022-08-18T11:20:47.428Z,9.80
2022-08-18T11:21:51.600Z,9.80
2022-08-18T11:24:20.818Z,9.30
2022-08-18T11:25:34.042Z,8.60
2022-08-18T11:29:34.419Z,8.20
2022-08-18T11:30:37.279Z,9.40
2022-08-18T11:33:04.189Z,10.40
2022-08-18T11:35:23.177Z,11.20
2022-08-18T11:36:29.899Z,11.40
2022-08-18T11:37:52.462Z,8.70
2022-08-18T11:38:55.098Z,11.70
2022-08-18T11:39:58.988Z,10.00
2022-08-18T11:41:20.405Z,10.00
2022-08-18T11:42:33.448Z,9.00
2022-08-18T11:43:41.260Z,12.10
2022-08-18T11:44:42.487Z,12.00
2022-08-18T11:45:49.318Z,11.00
2022-08-18T11:46:55.833Z,11.90
2022-08-18T11:48:11.787Z,11.00
2022-08-18T11:49:30.604Z,10.80
2022-08-18T11:50:39.111Z,9.90
2022-08-18T11:51:55.447Z,9.30
2022-08-18T11:53:14.558Z,9.70
2022-08-18T11:54:21.123Z,9.30
2022-08-18T11:55:30.376Z,10.50
2022-08-18T11:56:35.718Z,9.00
2022-08-18T11:57:51.130Z,11.40
2022-08-18T11:59:11.564Z,9.50
2022-08-18T12:00:43.134Z,9.60
2022-08-18T12:01:52.279Z,9.20
2022-08-18T12:03:09.450Z,10.20
2022-08-18T12:04:18.930Z,9.20
2022-08-18T12:05:21.487Z,10.50
2022-08-18T12:06:30.520Z,8.82
2022-08-18T12:07:34.300Z,9.80
2022-08-18T12:10:26.119Z,9.70
2022-08-18T12:11:31.577Z,12.60
2022-08-18T12:12:35.021Z,11.40
2022-08-18T12:13:44.172Z,9.80
2022-08-18T12:16:21.344Z,11.70
2022-08-18T12:17:24.782Z,9.60
2022-08-18T12:18:29.978Z,7.80
2022-08-18T12:19:34.342Z,9.10
2022-08-18T12:20:38.497Z,11.30
2022-08-18T12:21:53.506Z,10.10
2022-08-18T12:22:57.257Z,8.60
2022-08-18T12:23:59.614Z,10.20
2022-08-18T12:25:04.267Z,11.10
2022-08-18T12:26:18.767Z,9.00
2022-08-18T12:28:22.205Z,9.00
2022-08-18T12:29:32.616Z,10.70
2022-08-18T12:30:31.807Z,9.70
2022-08-18T12:31:42.410Z,8.50
2022-08-18T12:32:48.939Z,10.20
2022-08-18T12:33:48.253Z,9.50
2022-08-18T12:34:49.014Z,9.30
2022-08-18T12:35:53.377Z,8.00
2022-08-18T12:36:57.592Z,11.30
2022-08-18T12:38:05.005Z,9.60
2022-08-18T12:39:24.452Z,8.80
2022-08-18T12:40:28.326Z,9.50
2022-08-18T12:41:30.981Z,8.70
2022-08-18T12:42:34.869Z,10.10
2022-08-18T12:43:38.922Z,9.70
2022-08-18T12:44:42.245Z,9.80
2022-08-18T12:45:47.280Z,10.70
2022-08-18T12:46:50.146Z,9.00
2022-08-18T12:47:53.183Z,9.70
2022-08-18T12:48:55.440Z,8.80
2022-08-18T12:49:58.804Z,9.70
2022-08-18T12:51:05.897Z,8.50
2022-08-18T12:52:07.789Z,10.30
2022-08-18T12:53:12.098Z,8.70
2022-08-18T12:54:14.542Z,9.20
2022-08-18T12:57:52.512Z,9.20
2022-08-18T12:58:40.910Z,9.80
2022-08-18T12:59:43.969Z,9.30
2022-08-18T13:00:48.340Z,9.20
2022-08-18T13:01:58.348Z,8.80
2022-08-18T13:02:57.150Z,7.80
2022-08-18T13:04:13.280Z,9.60
2022-08-18T13:05:06.544Z,6.40
2022-08-18T13:06:09.808Z,7.90
2022-08-18T13:07:13.727Z,8.30
2022-08-18T13:08:27.709Z,5.40
2022-08-18T13:09:34.658Z,7.10
2022-08-18T13:10:45.579Z,7.90
2022-08-18T13:11:34.948Z,10.00
2022-08-18T13:12:38.170Z,9.30
2022-08-18T13:13:43.185Z,8.50
2022-08-18T13:14:46.699Z,9.20
2022-08-18T13:15:58.068Z,7.30
2022-08-18T13:16:55.196Z,7.30
2022-08-18T13:17:57.830Z,8.70
2022-08-18T13:19:01.232Z,8.60
2022-08-18T13:20:09.496Z,7.50
2022-08-18T13:21:16.619Z,8.00
2022-08-18T13:22:19.599Z,8.10
2022-08-18T13:23:25.146Z,7.00
2022-08-18T13:24:28.690Z,8.90
2022-08-18T13:25:33.055Z,9.00
2022-08-18T13:26:38.038Z,8.50
2022-08-18T13:27:43.521Z,9.70
2022-08-18T13:28:50.871Z,10.10
2022-08-18T13:29:51.089Z,8.20
2022-08-18T13:30:54.944Z,8.00
2022-08-18T13:31:57.849Z,6.80
2022-08-18T13:33:05.427Z,6.10
2022-08-18T13:34:05.437Z,1.40
2022-08-18T13:35:13.460Z,10.10
2022-08-18T13:36:18.470Z,8.60
2022-08-18T13:37:21.613Z,9.40
2022-08-18T13:38:26.040Z,9.20
2022-08-18T13:39:33.783Z,9.80
2022-08-18T13:40:33.389Z,8.80
2022-08-18T13:41:37.723Z,9.40
2022-08-18T13:42:50.754Z,9.00
2022-08-18T13:43:52.322Z,8.50
2022-08-18T13:45:22.762Z,9.70
2022-08-18T13:46:05.184Z,10.50
2022-08-18T13:47:09.083Z,8.50
2022-08-18T13:48:11.649Z,8.80
2022-08-18T13:49:18.585Z,9.80
2022-08-18T13:50:29.570Z,9.40
2022-08-18T13:51:30.313Z,9.40
2022-08-18T13:52:34.653Z,9.20
2022-08-18T13:53:50.466Z,3.70
2022-08-18T13:54:42.848Z,8.10
2022-08-18T13:55:47.037Z,10.20
2022-08-18T13:56:52.210Z,8.60
2022-08-18T13:57:55.228Z,8.00
2022-08-18T13:58:59.282Z,9.50
2022-08-18T14:00:02.355Z,8.00
2022-08-18T14:02:12.319Z,9.20
2022-08-18T14:03:30.748Z,6.60
2022-08-18T14:04:20.836Z,8.60
2022-08-18T14:05:36.649Z,9.70
2022-08-18T14:06:29.505Z,5.60
2022-08-18T14:07:31.925Z,8.30
2022-08-18T14:08:36.097Z,9.20
2022-08-18T14:09:40.512Z,9.00
2022-08-18T14:10:43.137Z,9.18
2022-08-18T14:11:45.414Z,8.40
2022-08-18T14:12:52.367Z,6.40
2022-08-18T14:13:55.121Z,8.80
2022-08-18T14:14:59.150Z,9.36
2022-08-18T14:16:02.905Z,10.40
2022-08-18T14:17:05.819Z,7.50
2022-08-18T14:18:09.586Z,7.50
2022-08-18T14:19:14.875Z,7.80
2022-08-18T14:20:21.551Z,7.60
2022-08-18T14:21:25.645Z,6.50
2022-08-18T14:22:29.687Z,8.20
2022-08-18T14:23:32.466Z,10.40
2022-08-18T14:24:36.813Z,8.40
2022-08-18T14:25:39.695Z,10.30
2022-08-18T14:26:42.834Z,8.20
2022-08-18T14:27:56.072Z,9.00
2022-08-18T14:28:52.620Z,9.40
2022-08-18T14:29:55.862Z,7.80
2022-08-18T14:30:59.747Z,8.30
2022-08-18T14:32:02.530Z,10.00
2022-08-18T14:33:06.601Z,10.09
2022-08-18T14:34:11.046Z,8.60
2022-08-18T14:35:34.054Z,9.10
2022-08-18T14:36:29.922Z,7.80
2022-08-18T14:37:27.178Z,7.80
2022-08-18T14:38:29.679Z,7.10
2022-08-18T14:39:33.725Z,10.00
2022-08-18T14:40:41.856Z,9.60
2022-08-18T14:41:54.891Z,10.20
2022-08-18T14:42:55.002Z,7.40
2022-08-18T14:44:11.985Z,9.70
2022-08-18T14:46:10.656Z,9.90
2022-08-18T14:47:14.223Z,9.40
2022-08-18T14:48:20.238Z,9.20
2022-08-18T14:49:28.088Z,9.20
2022-08-18T14:50:28.948Z,9.30
2022-08-18T14:51:35.607Z,8.60
2022-08-18T14:52:40.153Z,9.90
2022-08-18T14:53:42.958Z,9.60
2022-08-18T14:54:51.115Z,7.10
2022-08-18T14:55:51.626Z,8.90
2022-08-18T14:56:54.539Z,10.80
2022-08-18T14:57:59.592Z,9.40
2022-08-18T14:59:04.679Z,9.40
2022-08-18T15:00:12.672Z,8.90
2022-08-18T15:01:16.092Z,9.10
2022-08-18T15:02:20.354Z,8.70
2022-08-18T15:03:30.878Z,8.40
2022-08-18T15:04:28.878Z,8.80
2022-08-18T15:05:33.841Z,8.90
2022-08-18T15:06:41.225Z,9.60
2022-08-18T15:07:44.415Z,9.00
2022-08-18T15:08:48.564Z,8.80
2022-08-18T15:09:51.283Z,7.00
2022-08-18T15:10:57.195Z,4.30
2022-08-18T15:12:00.874Z,6.40
2022-08-18T15:13:05.509Z,8.70
2022-08-18T15:14:08.594Z,8.60
2022-08-18T15:15:17.694Z,9.10
2022-08-18T15:16:18.315Z,9.60
2022-08-18T15:17:21.962Z,6.70
2022-08-18T15:18:25.539Z,7.30
2022-08-18T15:19:59.193Z,8.10
2022-08-18T15:20:35.631Z,7.30
2022-08-18T15:21:39.122Z,7.70
2022-08-18T15:22:43.188Z,7.20
2022-08-18T15:23:45.744Z,7.00
2022-08-18T15:24:49.647Z,8.20
2022-08-18T15:25:53.259Z,8.50
2022-08-18T15:26:57.518Z,8.80
2022-08-18T15:28:00.327Z,8.10
2022-08-18T15:29:07.867Z,7.60
2022-08-18T15:32:27.670Z,6.30
2022-08-18T15:33:32.366Z,7.10
2022-08-18T15:34:47.342Z,7.20
2022-08-18T15:35:44.426Z,6.00
2022-08-18T15:36:48.412Z,7.90
2022-08-18T15:37:54.270Z,7.30
2022-08-18T15:40:41.225Z,6.70
2022-08-18T15:41:44.207Z,8.00
2022-08-18T15:42:46.150Z,7.20
2022-08-18T15:43:49.467Z,9.30
2022-08-18T15:44:53.664Z,8.50
2022-08-18T15:45:58.648Z,6.50
2022-08-18T15:47:02.064Z,7.30
2022-08-18T15:48:04.669Z,7.20
2022-08-18T15:49:15.049Z,9.40
2022-08-18T15:50:21.666Z,7.60
2022-08-18T15:51:19.134Z,8.10
2022-08-18T15:52:23.404Z,8.60
2022-08-18T15:53:29.713Z,7.40
2022-08-18T15:54:30.586Z,7.00
2022-08-18T15:55:37.445Z,8.70
2022-08-18T15:56:39.544Z,8.10
2022-08-18T15:57:44.101Z,6.70
2022-08-18T15:58:46.959Z,6.64
2022-08-18T15:59:50.306Z,5.82
2022-08-18T16:00:54.186Z,7.50
2022-08-18T16:01:57.567Z,7.80
2022-08-18T16:04:16.054Z,6.90
2022-08-18T16:05:20.046Z,8.50
2022-08-18T16:06:27.694Z,8.20
2022-08-18T16:07:41.280Z,7.10
2022-08-18T16:08:34.664Z,7.50
2022-08-18T16:09:37.893Z,5.20
2022-08-18T16:10:40.746Z,6.60
2022-08-18T16:11:43.230Z,7.70
2022-08-18T16:12:47.376Z,7.40
2022-08-18T16:13:51.236Z,6.30
2022-08-18T16:14:55.367Z,7.70
2022-08-18T16:15:58.308Z,7.10
2022-08-18T16:17:06.084Z,6.60
2022-08-18T16:18:06.208Z,8.30
2022-08-18T16:19:08.428Z,9.09
2022-08-18T16:20:13.504Z,8.40
2022-08-18T16:21:20.774Z,8.60
2022-08-18T16:22:24.877Z,8.50
2022-08-18T16:23:28.675Z,7.10
2022-08-18T16:24:31.090Z,7.60
2022-08-18T16:25:33.431Z,7.90
2022-08-18T16:26:36.937Z,9.50
2022-08-18T16:27:39.355Z,8.70
2022-08-18T16:28:43.586Z,7.10
2022-08-18T16:29:46.104Z,7.70
2022-08-18T16:30:48.781Z,9.18
2022-08-18T16:31:52.282Z,8.10
2022-08-18T16:32:56.216Z,8.30
2022-08-18T16:33:58.580Z,7.90
2022-08-18T16:35:00.910Z,7.40
2022-08-18T16:36:05.175Z,8.20
2022-08-18T16:37:07.800Z,6.50
2022-08-18T16:38:10.916Z,7.80
2022-08-18T16:39:13.426Z,7.20
2022-08-18T16:40:18.434Z,6.60
2022-08-18T16:41:20.943Z,7.20
2022-08-18T16:42:23.441Z,6.90
2022-08-18T16:43:25.848Z,7.90
2022-08-18T16:44:28.401Z,7.50
2022-08-18T16:45:30.773Z,8.20
2022-08-18T16:46:35.460Z,6.70
2022-08-18T16:47:39.023Z,8.10
2022-08-18T16:48:41.671Z,6.30
2022-08-18T16:49:47.284Z,6.70
2022-08-18T16:50:50.461Z,9.00
2022-08-18T16:51:52.802Z,7.91
2022-08-18T16:52:56.065Z,8.00
2022-08-18T16:53:59.293Z,7.70
2022-08-18T16:55:03.232Z,8.50
2022-08-18T16:56:11.278Z,8.90
2022-08-18T16:57:14.813Z,5.90
2022-08-18T16:58:17.016Z,7.30
2022-08-18T16:59:19.304Z,6.10
2022-08-18T17:00:24.100Z,7.50
2022-08-18T17:01:26.736Z,6.70
2022-08-18T17:02:31.626Z,8.60
2022-08-18T17:03:34.583Z,8.60
2022-08-18T17:04:36.726Z,7.70
2022-08-18T17:05:39.207Z,7.90
2022-08-18T17:06:48.007Z,8.60
2022-08-18T17:07:47.206Z,8.00
2022-08-18T17:08:49.595Z,9.00
2022-08-18T17:09:53.054Z,7.60
2022-08-18T17:10:55.646Z,9.20
2022-08-18T17:11:58.293Z,8.50
2022-08-18T17:13:06.412Z,8.45
2022-08-18T17:14:06.602Z,7.50
2022-08-18T17:15:10.824Z,8.60
2022-08-18T17:16:15.524Z,8.30
2022-08-18T17:17:19.109Z,7.80
2022-08-18T17:18:21.887Z,8.20
2022-08-18T17:20:38.450Z,9.00
2022-08-18T17:21:40.730Z,8.20
2022-08-18T17:22:43.569Z,8.70